sensor_id;sensor_type;location;lat;lon;timestamp;P1;durP1;ratioP1;P2;durP2;ratioP2
5718;SDS011;2884;47.734;9.244;2023-04-24T00:00:15;0.70;;;0.70;;
5718;SDS011;2884;47.734;9.244;2023-04-24T00:02:43;0.90;;;0.90;;
5718;SDS011;2884;47.734;9.244;2023-04-24T00:05:13;0.80;;;0.80;;
5718;SDS011;2884;47.734;9.244;2023-04-24T00:07:39;2.83;;;0.70;;
5718;SDS011;2884;47.734;9.244;2023-04-24T00:10:06;1.33;;;1.10;;
5718;SDS011;2884;47.734;9.244;2023-04-24T00:12:32;0.90;;;0.90;;
5718;SDS011;2884;47.734;9.244;2023-04-24T00:14:57;0.73;;;0.73;;
5718;SDS011;2884;47.734;9.244;2023-04-24T00:17:23;0.90;;;0.90;;
5718;SDS011;2884;47.734;9.244;2023-04-24T00:19:49;2.33;;;0.70;;
5718;SDS011;2884;47.734;9.244;2023-04-24T00:22:16;3.17;;;0.90;;
5718;SDS011;2884;47.734;9.244;2023-04-24T00:24:42;0.90;;;0.90;;
5718;SDS011;2884;47.734;9.244;2023-04-24T00:27:08;0.80;;;0.80;;
5718;SDS011;2884;47.734;9.244;2023-04-24T00:29:33;1.97;;;1.50;;
5718;SDS011;2884;47.734;9.244;2023-04-24T00:31:59;0.90;;;0.90;;
5718;SDS011;2884;47.734;9.244;2023-04-24T00:34:25;2.33;;;0.97;;
5718;SDS011;2884;47.734;9.244;2023-04-24T00:36:50;2.53;;;0.80;;
5718;SDS011;2884;47.734;9.244;2023-04-24T00:39:18;1.73;;;0.80;;
5718;SDS011;2884;47.734;9.244;2023-04-24T00:41:44;1.27;;;0.90;;
5718;SDS011;2884;47.734;9.244;2023-04-24T00:44:10;1.43;;;0.90;;
5718;SDS011;2884;47.734;9.244;2023-04-24T00:46:36;0.93;;;0.93;;
5718;SDS011;2884;47.734;9.244;2023-04-24T00:49:02;2.20;;;1.00;;
5718;SDS011;2884;47.734;9.244;2023-04-24T00:51:27;0.90;;;0.90;;
5718;SDS011;2884;47.734;9.244;2023-04-24T00:53:53;0.80;;;0.80;;
5718;SDS011;2884;47.734;9.244;2023-04-24T00:56:19;0.80;;;0.73;;
5718;SDS011;2884;47.734;9.244;2023-04-24T00:58:45;1.80;;;1.17;;
5718;SDS011;2884;47.734;9.244;2023-04-24T01:01:10;1.13;;;1.03;;
5718;SDS011;2884;47.734;9.244;2023-04-24T01:03:36;0.60;;;0.60;;
5718;SDS011;2884;47.734;9.244;2023-04-24T01:06:03;1.23;;;0.80;;
5718;SDS011;2884;47.734;9.244;2023-04-24T01:08:29;0.90;;;0.90;;
5718;SDS011;2884;47.734;9.244;2023-04-24T01:10:55;1.23;;;0.90;;
5718;SDS011;2884;47.734;9.244;2023-04-24T01:13:22;1.00;;;0.90;;
5718;SDS011;2884;47.734;9.244;2023-04-24T01:15:48;1.43;;;1.00;;
5718;SDS011;2884;47.734;9.244;2023-04-24T01:18:14;0.90;;;0.90;;
5718;SDS011;2884;47.734;9.244;2023-04-24T01:20:40;1.57;;;1.00;;
5718;SDS011;2884;47.734;9.244;2023-04-24T01:23:07;0.83;;;0.83;;
5718;SDS011;2884;47.734;9.244;2023-04-24T01:25:33;0.70;;;0.70;;
5718;SDS011;2884;47.734;9.244;2023-04-24T01:27:59;1.13;;;0.80;;
5718;SDS011;2884;47.734;9.244;2023-04-24T01:30:25;1.23;;;0.70;;
5718;SDS011;2884;47.734;9.244;2023-04-24T01:32:51;1.17;;;0.80;;
5718;SDS011;2884;47.734;9.244;2023-04-24T01:35:17;0.90;;;0.90;;
5718;SDS011;2884;47.734;9.244;2023-04-24T01:37:43;1.40;;;0.80;;
5718;SDS011;2884;47.734;9.244;2023-04-24T01:40:09;0.60;;;0.60;;
5718;SDS011;2884;47.734;9.244;2023-04-24T01:42:35;0.67;;;0.67;;
5718;SDS011;2884;47.734;9.244;2023-04-24T01:45:01;0.80;;;0.80;;
5718;SDS011;2884;47.734;9.244;2023-04-24T01:47:28;2.10;;;0.57;;
5718;SDS011;2884;47.734;9.244;2023-04-24T01:49:55;2.00;;;0.53;;
5718;SDS011;2884;47.734;9.244;2023-04-24T01:52:20;1.43;;;0.80;;
5718;SDS011;2884;47.734;9.244;2023-04-24T01:54:46;0.70;;;0.70;;
5718;SDS011;2884;47.734;9.244;2023-04-24T01:57:13;0.60;;;0.60;;
5718;SDS011;2884;47.734;9.244;2023-04-24T01:59:39;0.90;;;0.60;;
5718;SDS011;2884;47.734;9.244;2023-04-24T02:02:05;1.20;;;0.80;;
5718;SDS011;2884;47.734;9.244;2023-04-24T02:04:31;0.80;;;0.67;;
5718;SDS011;2884;47.734;9.244;2023-04-24T02:06:57;0.80;;;0.70;;
5718;SDS011;2884;47.734;9.244;2023-04-24T02:09:22;0.67;;;0.67;;
5718;SDS011;2884;47.734;9.244;2023-04-24T02:11:49;0.73;;;0.57;;
5718;SDS011;2884;47.734;9.244;2023-04-24T02:14:15;0.90;;;0.90;;
5718;SDS011;2884;47.734;9.244;2023-04-24T02:16:40;1.80;;;0.70;;
5718;SDS011;2884;47.734;9.244;2023-04-24T02:19:06;0.70;;;0.70;;
5718;SDS011;2884;47.734;9.244;2023-04-24T02:21:32;1.47;;;0.60;;
5718;SDS011;2884;47.734;9.244;2023-04-24T02:23:58;1.53;;;0.60;;
5718;SDS011;2884;47.734;9.244;2023-04-24T02:26:23;1.20;;;0.53;;
5718;SDS011;2884;47.734;9.244;2023-04-24T02:28:49;1.33;;;0.57;;
5718;SDS011;2884;47.734;9.244;2023-04-24T02:31:15;0.53;;;0.50;;
5718;SDS011;2884;47.734;9.244;2023-04-24T02:33:40;0.60;;;0.60;;
5718;SDS011;2884;47.734;9.244;2023-04-24T02:36:06;0.60;;;0.60;;
5718;SDS011;2884;47.734;9.244;2023-04-24T02:38:31;2.83;;;0.60;;
5718;SDS011;2884;47.734;9.244;2023-04-24T02:40:57;0.60;;;0.60;;
5718;SDS011;2884;47.734;9.244;2023-04-24T02:43:23;0.50;;;0.50;;
5718;SDS011;2884;47.734;9.244;2023-04-24T02:45:48;0.50;;;0.50;;
5718;SDS011;2884;47.734;9.244;2023-04-24T02:48:14;0.87;;;0.80;;
5718;SDS011;2884;47.734;9.244;2023-04-24T02:50:40;0.60;;;0.60;;
5718;SDS011;2884;47.734;9.244;2023-04-24T02:53:06;1.63;;;0.90;;
5718;SDS011;2884;47.734;9.244;2023-04-24T02:55:31;0.87;;;0.60;;
5718;SDS011;2884;47.734;9.244;2023-04-24T02:57:57;0.93;;;0.50;;
5718;SDS011;2884;47.734;9.244;2023-04-24T03:00:22;0.93;;;0.60;;
5718;SDS011;2884;47.734;9.244;2023-04-24T03:02:48;0.50;;;0.50;;
5718;SDS011;2884;47.734;9.244;2023-04-24T03:05:14;0.77;;;0.60;;
5718;SDS011;2884;47.734;9.244;2023-04-24T03:07:40;0.60;;;0.60;;
5718;SDS011;2884;47.734;9.244;2023-04-24T03:10:06;0.80;;;0.80;;
5718;SDS011;2884;47.734;9.244;2023-04-24T03:12:32;0.70;;;0.70;;
5718;SDS011;2884;47.734;9.244;2023-04-24T03:14:58;1.13;;;1.03;;
5718;SDS011;2884;47.734;9.244;2023-04-24T03:17:23;0.70;;;0.70;;
5718;SDS011;2884;47.734;9.244;2023-04-24T03:19:49;0.60;;;0.60;;
5718;SDS011;2884;47.734;9.244;2023-04-24T03:22:14;0.60;;;0.60;;
5718;SDS011;2884;47.734;9.244;2023-04-24T03:24:40;1.80;;;0.50;;
5718;SDS011;2884;47.734;9.244;2023-04-24T03:27:05;0.50;;;0.50;;
5718;SDS011;2884;47.734;9.244;2023-04-24T03:29:31;4.07;;;0.53;;
5718;SDS011;2884;47.734;9.244;2023-04-24T03:31:56;0.60;;;0.60;;
5718;SDS011;2884;47.734;9.244;2023-04-24T03:34:22;0.50;;;0.50;;
5718;SDS011;2884;47.734;9.244;2023-04-24T03:36:48;0.60;;;0.60;;
5718;SDS011;2884;47.734;9.244;2023-04-24T03:39:13;0.50;;;0.50;;
5718;SDS011;2884;47.734;9.244;2023-04-24T03:41:39;0.60;;;0.60;;
5718;SDS011;2884;47.734;9.244;2023-04-24T03:44:05;1.40;;;0.60;;
5718;SDS011;2884;47.734;9.244;2023-04-24T03:46:30;0.70;;;0.67;;
5718;SDS011;2884;47.734;9.244;2023-04-24T03:48:56;0.53;;;0.53;;
5718;SDS011;2884;47.734;9.244;2023-04-24T03:51:21;2.97;;;0.50;;
5718;SDS011;2884;47.734;9.244;2023-04-24T03:53:48;1.80;;;0.60;;
5718;SDS011;2884;47.734;9.244;2023-04-24T03:56:14;0.50;;;0.50;;
5718;SDS011;2884;47.734;9.244;2023-04-24T03:58:39;0.50;;;0.50;;
5718;SDS011;2884;47.734;9.244;2023-04-24T04:01:05;1.83;;;0.50;;
5718;SDS011;2884;47.734;9.244;2023-04-24T04:03:31;0.50;;;0.50;;
5718;SDS011;2884;47.734;9.244;2023-04-24T04:05:57;0.50;;;0.50;;
5718;SDS011;2884;47.734;9.244;2023-04-24T04:08:22;0.40;;;0.40;;
5718;SDS011;2884;47.734;9.244;2023-04-24T04:10:48;0.63;;;0.50;;
5718;SDS011;2884;47.734;9.244;2023-04-24T04:13:14;0.50;;;0.50;;
5718;SDS011;2884;47.734;9.244;2023-04-24T04:15:39;0.50;;;0.50;;
5718;SDS011;2884;47.734;9.244;2023-04-24T04:18:05;3.03;;;0.50;;
5718;SDS011;2884;47.734;9.244;2023-04-24T04:20:31;0.50;;;0.50;;
5718;SDS011;2884;47.734;9.244;2023-04-24T04:23:04;1.03;;;0.60;;
5718;SDS011;2884;47.734;9.244;2023-04-24T04:25:32;0.50;;;0.50;;
5718;SDS011;2884;47.734;9.244;2023-04-24T04:27:58;0.43;;;0.43;;
5718;SDS011;2884;47.734;9.244;2023-04-24T04:30:24;0.50;;;0.50;;
5718;SDS011;2884;47.734;9.244;2023-04-24T04:32:51;0.50;;;0.50;;
5718;SDS011;2884;47.734;9.244;2023-04-24T04:35:16;0.50;;;0.50;;
5718;SDS011;2884;47.734;9.244;2023-04-24T04:37:42;0.40;;;0.40;;
5718;SDS011;2884;47.734;9.244;2023-04-24T04:40:08;0.50;;;0.50;;
5718;SDS011;2884;47.734;9.244;2023-04-24T04:42:37;0.53;;;0.50;;
5718;SDS011;2884;47.734;9.244;2023-04-24T04:45:06;3.40;;;0.50;;
5718;SDS011;2884;47.734;9.244;2023-04-24T04:47:33;0.60;;;0.60;;
5718;SDS011;2884;47.734;9.244;2023-04-24T04:50:00;0.40;;;0.40;;
5718;SDS011;2884;47.734;9.244;2023-04-24T04:52:25;0.50;;;0.50;;
5718;SDS011;2884;47.734;9.244;2023-04-24T04:54:51;0.50;;;0.50;;
5718;SDS011;2884;47.734;9.244;2023-04-24T04:57:17;0.60;;;0.50;;
5718;SDS011;2884;47.734;9.244;2023-04-24T04:59:43;2.20;;;0.60;;
5718;SDS011;2884;47.734;9.244;2023-04-24T05:02:08;0.40;;;0.40;;
5718;SDS011;2884;47.734;9.244;2023-04-24T05:04:34;1.47;;;0.40;;
5718;SDS011;2884;47.734;9.244;2023-04-24T05:07:00;0.40;;;0.40;;
5718;SDS011;2884;47.734;9.244;2023-04-24T05:09:25;0.83;;;0.50;;
5718;SDS011;2884;47.734;9.244;2023-04-24T05:11:52;0.57;;;0.57;;
5718;SDS011;2884;47.734;9.244;2023-04-24T05:14:18;2.40;;;0.60;;
5718;SDS011;2884;47.734;9.244;2023-04-24T05:16:44;1.60;;;0.60;;
5718;SDS011;2884;47.734;9.244;2023-04-24T05:19:10;0.50;;;0.50;;
5718;SDS011;2884;47.734;9.244;2023-04-24T05:21:36;0.50;;;0.50;;
5718;SDS011;2884;47.734;9.244;2023-04-24T05:24:02;0.50;;;0.50;;
5718;SDS011;2884;47.734;9.244;2023-04-24T05:26:28;1.00;;;0.70;;
5718;SDS011;2884;47.734;9.244;2023-04-24T05:28:53;1.53;;;1.30;;
5718;SDS011;2884;47.734;9.244;2023-04-24T05:31:19;0.57;;;0.57;;
5718;SDS011;2884;47.734;9.244;2023-04-24T05:33:45;0.60;;;0.60;;
5718;SDS011;2884;47.734;9.244;2023-04-24T05:36:10;0.50;;;0.50;;
5718;SDS011;2884;47.734;9.244;2023-04-24T05:38:36;0.50;;;0.50;;
5718;SDS011;2884;47.734;9.244;2023-04-24T05:41:01;0.80;;;0.80;;
5718;SDS011;2884;47.734;9.244;2023-04-24T05:43:27;2.73;;;0.53;;
5718;SDS011;2884;47.734;9.244;2023-04-24T05:45:52;1.10;;;0.57;;
5718;SDS011;2884;47.734;9.244;2023-04-24T05:48:18;0.50;;;0.50;;
5718;SDS011;2884;47.734;9.244;2023-04-24T05:50:44;0.50;;;0.50;;
5718;SDS011;2884;47.734;9.244;2023-04-24T05:53:10;2.63;;;0.60;;
5718;SDS011;2884;47.734;9.244;2023-04-24T05:55:36;0.40;;;0.40;;
5718;SDS011;2884;47.734;9.244;2023-04-24T05:58:01;1.03;;;0.50;;
5718;SDS011;2884;47.734;9.244;2023-04-24T06:00:27;0.60;;;0.50;;
5718;SDS011;2884;47.734;9.244;2023-04-24T06:02:54;0.60;;;0.60;;
5718;SDS011;2884;47.734;9.244;2023-04-24T06:05:20;0.50;;;0.50;;
5718;SDS011;2884;47.734;9.244;2023-04-24T06:07:45;3.53;;;0.60;;
5718;SDS011;2884;47.734;9.244;2023-04-24T06:10:11;0.70;;;0.70;;
5718;SDS011;2884;47.734;9.244;2023-04-24T06:12:36;1.27;;;0.60;;
5718;SDS011;2884;47.734;9.244;2023-04-24T06:15:02;0.50;;;0.50;;
5718;SDS011;2884;47.734;9.244;2023-04-24T06:17:29;0.90;;;0.70;;
5718;SDS011;2884;47.734;9.244;2023-04-24T06:19:54;1.07;;;0.97;;
5718;SDS011;2884;47.734;9.244;2023-04-24T06:22:20;0.60;;;0.60;;
5718;SDS011;2884;47.734;9.244;2023-04-24T06:24:45;0.67;;;0.67;;
5718;SDS011;2884;47.734;9.244;2023-04-24T06:27:13;0.60;;;0.60;;
5718;SDS011;2884;47.734;9.244;2023-04-24T06:29:39;1.83;;;0.80;;
5718;SDS011;2884;47.734;9.244;2023-04-24T06:32:05;1.70;;;0.70;;
5718;SDS011;2884;47.734;9.244;2023-04-24T06:34:30;2.87;;;0.70;;
5718;SDS011;2884;47.734;9.244;2023-04-24T06:36:57;3.30;;;0.80;;
5718;SDS011;2884;47.734;9.244;2023-04-24T06:39:23;0.87;;;0.87;;
5718;SDS011;2884;47.734;9.244;2023-04-24T06:41:49;0.77;;;0.70;;
5718;SDS011;2884;47.734;9.244;2023-04-24T06:44:14;1.57;;;0.70;;
5718;SDS011;2884;47.734;9.244;2023-04-24T06:46:40;1.23;;;0.80;;
5718;SDS011;2884;47.734;9.244;2023-04-24T06:49:06;4.93;;;0.97;;
5718;SDS011;2884;47.734;9.244;2023-04-24T06:51:31;1.17;;;0.93;;
5718;SDS011;2884;47.734;9.244;2023-04-24T06:53:58;3.33;;;1.67;;
5718;SDS011;2884;47.734;9.244;2023-04-24T06:56:24;2.10;;;0.90;;
5718;SDS011;2884;47.734;9.244;2023-04-24T06:58:50;3.40;;;1.00;;
5718;SDS011;2884;47.734;9.244;2023-04-24T07:01:16;1.10;;;1.00;;
5718;SDS011;2884;47.734;9.244;2023-04-24T07:03:42;1.70;;;1.00;;
5718;SDS011;2884;47.734;9.244;2023-04-24T07:06:07;0.90;;;0.90;;
5718;SDS011;2884;47.734;9.244;2023-04-24T07:08:34;0.97;;;0.97;;
5718;SDS011;2884;47.734;9.244;2023-04-24T07:11:00;0.80;;;0.80;;
5718;SDS011;2884;47.734;9.244;2023-04-24T07:13:26;1.90;;;1.57;;
5718;SDS011;2884;47.734;9.244;2023-04-24T07:15:53;3.27;;;1.47;;
5718;SDS011;2884;47.734;9.244;2023-04-24T07:18:23;2.47;;;1.00;;
5718;SDS011;2884;47.734;9.244;2023-04-24T07:20:48;4.63;;;1.20;;
5718;SDS011;2884;47.734;9.244;2023-04-24T07:23:17;4.87;;;1.20;;
5718;SDS011;2884;47.734;9.244;2023-04-24T07:25:43;3.20;;;1.03;;
5718;SDS011;2884;47.734;9.244;2023-04-24T07:28:09;3.33;;;1.17;;
5718;SDS011;2884;47.734;9.244;2023-04-24T07:30:34;1.23;;;1.10;;
5718;SDS011;2884;47.734;9.244;2023-04-24T07:33:00;3.03;;;1.00;;
5718;SDS011;2884;47.734;9.244;2023-04-24T07:35:26;2.80;;;1.20;;
5718;SDS011;2884;47.734;9.244;2023-04-24T07:37:55;2.20;;;1.57;;
5718;SDS011;2884;47.734;9.244;2023-04-24T07:40:21;2.40;;;1.10;;
5718;SDS011;2884;47.734;9.244;2023-04-24T07:42:47;2.03;;;1.10;;
5718;SDS011;2884;47.734;9.244;2023-04-24T07:45:14;1.47;;;1.00;;
5718;SDS011;2884;47.734;9.244;2023-04-24T07:47:41;1.73;;;1.10;;
5718;SDS011;2884;47.734;9.244;2023-04-24T07:50:09;1.63;;;1.30;;
5718;SDS011;2884;47.734;9.244;2023-04-24T07:52:35;2.10;;;0.90;;
5718;SDS011;2884;47.734;9.244;2023-04-24T07:55:00;1.93;;;1.47;;
5718;SDS011;2884;47.734;9.244;2023-04-24T07:57:27;2.00;;;1.07;;
5718;SDS011;2884;47.734;9.244;2023-04-24T07:59:53;3.70;;;1.20;;
5718;SDS011;2884;47.734;9.244;2023-04-24T08:02:18;1.63;;;1.10;;
5718;SDS011;2884;47.734;9.244;2023-04-24T08:04:44;2.43;;;1.10;;
5718;SDS011;2884;47.734;9.244;2023-04-24T08:07:10;3.23;;;1.20;;
5718;SDS011;2884;47.734;9.244;2023-04-24T08:09:38;1.63;;;1.23;;
5718;SDS011;2884;47.734;9.244;2023-04-24T08:12:03;3.00;;;1.30;;
5718;SDS011;2884;47.734;9.244;2023-04-24T08:14:29;1.30;;;1.20;;
5718;SDS011;2884;47.734;9.244;2023-04-24T08:16:54;1.20;;;1.10;;
5718;SDS011;2884;47.734;9.244;2023-04-24T08:19:25;1.33;;;1.10;;
5718;SDS011;2884;47.734;9.244;2023-04-24T08:21:50;1.93;;;0.90;;
5718;SDS011;2884;47.734;9.244;2023-04-24T08:24:16;3.33;;;0.93;;
5718;SDS011;2884;47.734;9.244;2023-04-24T08:26:41;4.97;;;1.27;;
5718;SDS011;2884;47.734;9.244;2023-04-24T08:29:08;8.60;;;1.33;;
5718;SDS011;2884;47.734;9.244;2023-04-24T08:31:33;0.80;;;0.80;;
5718;SDS011;2884;47.734;9.244;2023-04-24T08:33:59;0.80;;;0.80;;
5718;SDS011;2884;47.734;9.244;2023-04-24T08:36:25;5.10;;;0.70;;
5718;SDS011;2884;47.734;9.244;2023-04-24T08:38:51;0.83;;;0.83;;
5718;SDS011;2884;47.734;9.244;2023-04-24T08:41:17;3.67;;;1.10;;
5718;SDS011;2884;47.734;9.244;2023-04-24T08:43:43;7.03;;;1.30;;
5718;SDS011;2884;47.734;9.244;2023-04-24T08:46:11;2.97;;;1.10;;
5718;SDS011;2884;47.734;9.244;2023-04-24T08:48:38;2.00;;;0.93;;
5718;SDS011;2884;47.734;9.244;2023-04-24T08:51:05;2.33;;;1.10;;
5718;SDS011;2884;47.734;9.244;2023-04-24T08:53:32;1.43;;;1.00;;
5718;SDS011;2884;47.734;9.244;2023-04-24T08:55:58;1.07;;;0.90;;
5718;SDS011;2884;47.734;9.244;2023-04-24T08:58:25;4.13;;;0.90;;
5718;SDS011;2884;47.734;9.244;2023-04-24T09:00:51;1.93;;;0.83;;
5718;SDS011;2884;47.734;9.244;2023-04-24T09:03:19;1.10;;;1.00;;
5718;SDS011;2884;47.734;9.244;2023-04-24T09:05:47;4.30;;;0.87;;
5718;SDS011;2884;47.734;9.244;2023-04-24T09:08:13;2.30;;;1.00;;
5718;SDS011;2884;47.734;9.244;2023-04-24T09:10:39;1.70;;;1.10;;
5718;SDS011;2884;47.734;9.244;2023-04-24T09:13:06;2.93;;;1.23;;
5718;SDS011;2884;47.734;9.244;2023-04-24T09:15:34;3.23;;;0.90;;
5718;SDS011;2884;47.734;9.244;2023-04-24T09:17:59;3.60;;;0.97;;
5718;SDS011;2884;47.734;9.244;2023-04-24T09:20:25;3.00;;;1.27;;
5718;SDS011;2884;47.734;9.244;2023-04-24T09:22:53;1.50;;;0.80;;
5718;SDS011;2884;47.734;9.244;2023-04-24T09:25:20;2.80;;;1.13;;
5718;SDS011;2884;47.734;9.244;2023-04-24T09:27:46;0.70;;;0.70;;
5718;SDS011;2884;47.734;9.244;2023-04-24T09:30:12;1.60;;;1.00;;
5718;SDS011;2884;47.734;9.244;2023-04-24T09:32:39;1.00;;;0.90;;
5718;SDS011;2884;47.734;9.244;2023-04-24T09:35:06;1.90;;;1.20;;
5718;SDS011;2884;47.734;9.244;2023-04-24T09:37:43;6.70;;;2.17;;
5718;SDS011;2884;47.734;9.244;2023-04-24T09:42:44;2.10;;;1.30;;
5718;SDS011;2884;47.734;9.244;2023-04-24T09:45:20;2.00;;;0.90;;
5718;SDS011;2884;47.734;9.244;2023-04-24T09:47:46;0.90;;;0.90;;
5718;SDS011;2884;47.734;9.244;2023-04-24T09:50:16;3.20;;;1.10;;
5718;SDS011;2884;47.734;9.244;2023-04-24T09:52:43;1.30;;;1.10;;
5718;SDS011;2884;47.734;9.244;2023-04-24T09:55:16;3.63;;;1.37;;
5718;SDS011;2884;47.734;9.244;2023-04-24T09:57:50;3.13;;;1.17;;
5718;SDS011;2884;47.734;9.244;2023-04-24T10:00:18;2.20;;;1.10;;
5718;SDS011;2884;47.734;9.244;2023-04-24T10:03:03;1.90;;;1.10;;
5718;SDS011;2884;47.734;9.244;2023-04-24T10:05:32;2.43;;;1.10;;
5718;SDS011;2884;47.734;9.244;2023-04-24T10:08:03;11.87;;;1.43;;
5718;SDS011;2884;47.734;9.244;2023-04-24T10:10:34;8.03;;;1.87;;
5718;SDS011;2884;47.734;9.244;2023-04-24T10:13:04;3.83;;;0.93;;
5718;SDS011;2884;47.734;9.244;2023-04-24T10:15:30;4.33;;;1.30;;
5718;SDS011;2884;47.734;9.244;2023-04-24T10:17:55;2.73;;;1.03;;
5718;SDS011;2884;47.734;9.244;2023-04-24T10:20:24;1.93;;;1.00;;
5718;SDS011;2884;47.734;9.244;2023-04-24T10:22:52;3.07;;;1.20;;
5718;SDS011;2884;47.734;9.244;2023-04-24T10:25:22;1.80;;;1.10;;
5718;SDS011;2884;47.734;9.244;2023-04-24T10:27:49;3.13;;;1.20;;
5718;SDS011;2884;47.734;9.244;2023-04-24T10:30:16;3.70;;;1.73;;
5718;SDS011;2884;47.734;9.244;2023-04-24T10:32:43;3.33;;;1.00;;
5718;SDS011;2884;47.734;9.244;2023-04-24T10:35:09;1.93;;;1.10;;
5718;SDS011;2884;47.734;9.244;2023-04-24T10:37:38;3.13;;;1.00;;
5718;SDS011;2884;47.734;9.244;2023-04-24T10:40:31;1.40;;;1.30;;
5718;SDS011;2884;47.734;9.244;2023-04-24T10:42:59;2.40;;;1.07;;
5718;SDS011;2884;47.734;9.244;2023-04-24T10:45:25;3.23;;;1.17;;
5718;SDS011;2884;47.734;9.244;2023-04-24T10:47:57;3.43;;;1.23;;
5718;SDS011;2884;47.734;9.244;2023-04-24T10:50:28;1.73;;;1.10;;
5718;SDS011;2884;47.734;9.244;2023-04-24T10:53:04;2.83;;;1.17;;
5718;SDS011;2884;47.734;9.244;2023-04-24T10:58:11;3.03;;;0.87;;
5718;SDS011;2884;47.734;9.244;2023-04-24T11:00:38;1.20;;;1.10;;
5718;SDS011;2884;47.734;9.244;2023-04-24T11:03:05;3.37;;;1.30;;
5718;SDS011;2884;47.734;9.244;2023-04-24T11:11:09;3.37;;;1.23;;
5718;SDS011;2884;47.734;9.244;2023-04-24T11:16:20;1.97;;;1.20;;
5718;SDS011;2884;47.734;9.244;2023-04-24T11:18:59;3.77;;;1.20;;
5718;SDS011;2884;47.734;9.244;2023-04-24T11:21:47;4.30;;;1.13;;
5718;SDS011;2884;47.734;9.244;2023-04-24T11:27:12;1.03;;;0.90;;
5718;SDS011;2884;47.734;9.244;2023-04-24T11:32:18;1.97;;;1.20;;
5718;SDS011;2884;47.734;9.244;2023-04-24T11:34:46;3.13;;;1.20;;
5718;SDS011;2884;47.734;9.244;2023-04-24T11:37:12;3.23;;;1.13;;
5718;SDS011;2884;47.734;9.244;2023-04-24T11:39:38;3.33;;;1.17;;
5718;SDS011;2884;47.734;9.244;2023-04-24T11:42:04;3.73;;;0.93;;
5718;SDS011;2884;47.734;9.244;2023-04-24T11:44:31;1.03;;;0.93;;
5718;SDS011;2884;47.734;9.244;2023-04-24T11:46:58;1.97;;;1.30;;
5718;SDS011;2884;47.734;9.244;2023-04-24T11:49:25;7.23;;;1.30;;
5718;SDS011;2884;47.734;9.244;2023-04-24T11:51:54;5.07;;;1.30;;
5718;SDS011;2884;47.734;9.244;2023-04-24T11:54:20;2.67;;;1.00;;
5718;SDS011;2884;47.734;9.244;2023-04-24T11:56:46;3.17;;;1.10;;
5718;SDS011;2884;47.734;9.244;2023-04-24T11:59:12;3.30;;;1.30;;
5718;SDS011;2884;47.734;9.244;2023-04-24T12:01:45;2.23;;;0.80;;
5718;SDS011;2884;47.734;9.244;2023-04-24T12:04:11;1.23;;;0.90;;
5718;SDS011;2884;47.734;9.244;2023-04-24T12:06:37;1.50;;;0.80;;
5718;SDS011;2884;47.734;9.244;2023-04-24T12:09:02;2.80;;;1.20;;
5718;SDS011;2884;47.734;9.244;2023-04-24T12:11:28;1.00;;;0.90;;
5718;SDS011;2884;47.734;9.244;2023-04-24T12:13:54;2.70;;;1.10;;
5718;SDS011;2884;47.734;9.244;2023-04-24T12:16:19;2.80;;;1.30;;
5718;SDS011;2884;47.734;9.244;2023-04-24T12:18:45;1.17;;;1.07;;
5718;SDS011;2884;47.734;9.244;2023-04-24T12:21:21;2.07;;;1.03;;
5718;SDS011;2884;47.734;9.244;2023-04-24T12:23:47;5.20;;;1.20;;
5718;SDS011;2884;47.734;9.244;2023-04-24T12:26:19;4.70;;;1.30;;
5718;SDS011;2884;47.734;9.244;2023-04-24T12:28:48;2.57;;;1.20;;
5718;SDS011;2884;47.734;9.244;2023-04-24T12:31:17;1.50;;;0.93;;
5718;SDS011;2884;47.734;9.244;2023-04-24T12:33:45;3.13;;;1.13;;
5718;SDS011;2884;47.734;9.244;2023-04-24T12:36:11;3.57;;;1.37;;
5718;SDS011;2884;47.734;9.244;2023-04-24T12:38:37;2.47;;;1.30;;
5718;SDS011;2884;47.734;9.244;2023-04-24T12:41:11;3.77;;;1.23;;
5718;SDS011;2884;47.734;9.244;2023-04-24T12:43:38;1.83;;;1.20;;
5718;SDS011;2884;47.734;9.244;2023-04-24T12:46:03;4.07;;;1.13;;
5718;SDS011;2884;47.734;9.244;2023-04-24T12:48:30;2.70;;;1.00;;
5718;SDS011;2884;47.734;9.244;2023-04-24T12:50:59;1.67;;;1.00;;
5718;SDS011;2884;47.734;9.244;2023-04-24T12:53:28;2.47;;;1.13;;
5718;SDS011;2884;47.734;9.244;2023-04-24T12:55:57;2.33;;;1.20;;
5718;SDS011;2884;47.734;9.244;2023-04-24T12:58:22;3.87;;;1.13;;
5718;SDS011;2884;47.734;9.244;2023-04-24T13:00:48;2.33;;;1.10;;
5718;SDS011;2884;47.734;9.244;2023-04-24T13:03:13;2.60;;;1.07;;
5718;SDS011;2884;47.734;9.244;2023-04-24T13:05:39;3.33;;;1.00;;
5718;SDS011;2884;47.734;9.244;2023-04-24T13:08:05;1.93;;;1.00;;
5718;SDS011;2884;47.734;9.244;2023-04-24T13:10:31;2.87;;;0.90;;
5718;SDS011;2884;47.734;9.244;2023-04-24T13:12:56;2.23;;;0.87;;
5718;SDS011;2884;47.734;9.244;2023-04-24T13:15:22;2.37;;;0.97;;
5718;SDS011;2884;47.734;9.244;2023-04-24T13:17:48;1.10;;;1.00;;
5718;SDS011;2884;47.734;9.244;2023-04-24T13:20:13;1.47;;;1.00;;
5718;SDS011;2884;47.734;9.244;2023-04-24T13:22:39;9.27;;;1.20;;
5718;SDS011;2884;47.734;9.244;2023-04-24T13:25:05;2.00;;;1.30;;
5718;SDS011;2884;47.734;9.244;2023-04-24T13:27:34;1.63;;;1.03;;
5718;SDS011;2884;47.734;9.244;2023-04-24T13:30:00;1.43;;;0.93;;
5718;SDS011;2884;47.734;9.244;2023-04-24T13:32:25;1.90;;;1.13;;
5718;SDS011;2884;47.734;9.244;2023-04-24T13:34:51;1.73;;;1.13;;
5718;SDS011;2884;47.734;9.244;2023-04-24T13:37:17;3.40;;;1.23;;
5718;SDS011;2884;47.734;9.244;2023-04-24T13:39:42;1.67;;;1.00;;
5718;SDS011;2884;47.734;9.244;2023-04-24T13:42:08;1.73;;;1.07;;
5718;SDS011;2884;47.734;9.244;2023-04-24T13:44:34;4.23;;;1.30;;
5718;SDS011;2884;47.734;9.244;2023-04-24T13:46:59;8.03;;;1.20;;
5718;SDS011;2884;47.734;9.244;2023-04-24T13:49:25;5.23;;;1.27;;
5718;SDS011;2884;47.734;9.244;2023-04-24T13:51:51;1.53;;;1.30;;
5718;SDS011;2884;47.734;9.244;2023-04-24T13:54:18;1.60;;;1.20;;
5718;SDS011;2884;47.734;9.244;2023-04-24T13:56:43;9.57;;;1.17;;
5718;SDS011;2884;47.734;9.244;2023-04-24T13:59:08;3.13;;;1.40;;
5718;SDS011;2884;47.734;9.244;2023-04-24T14:01:35;2.77;;;1.27;;
5718;SDS011;2884;47.734;9.244;2023-04-24T14:04:00;5.33;;;1.37;;
5718;SDS011;2884;47.734;9.244;2023-04-24T14:06:26;1.90;;;1.17;;
5718;SDS011;2884;47.734;9.244;2023-04-24T14:08:52;2.63;;;0.90;;
5718;SDS011;2884;47.734;9.244;2023-04-24T14:11:18;1.83;;;1.20;;
5718;SDS011;2884;47.734;9.244;2023-04-24T14:13:43;1.50;;;0.97;;
5718;SDS011;2884;47.734;9.244;2023-04-24T14:16:10;4.60;;;1.43;;
5718;SDS011;2884;47.734;9.244;2023-04-24T14:18:35;4.93;;;1.03;;
5718;SDS011;2884;47.734;9.244;2023-04-24T14:21:01;1.13;;;0.93;;
5718;SDS011;2884;47.734;9.244;2023-04-24T14:23:28;3.50;;;1.20;;
5718;SDS011;2884;47.734;9.244;2023-04-24T14:25:53;2.57;;;1.20;;
5718;SDS011;2884;47.734;9.244;2023-04-24T14:28:19;1.83;;;1.20;;
5718;SDS011;2884;47.734;9.244;2023-04-24T14:30:45;1.87;;;1.27;;
5718;SDS011;2884;47.734;9.244;2023-04-24T14:33:11;1.20;;;1.10;;
5718;SDS011;2884;47.734;9.244;2023-04-24T14:35:38;4.17;;;1.10;;
5718;SDS011;2884;47.734;9.244;2023-04-24T14:38:04;3.27;;;1.00;;
5718;SDS011;2884;47.734;9.244;2023-04-24T14:40:29;1.43;;;1.20;;
5718;SDS011;2884;47.734;9.244;2023-04-24T14:42:56;1.83;;;1.03;;
5718;SDS011;2884;47.734;9.244;2023-04-24T14:45:23;1.90;;;1.00;;
5718;SDS011;2884;47.734;9.244;2023-04-24T14:47:49;1.33;;;1.20;;
5718;SDS011;2884;47.734;9.244;2023-04-24T14:50:14;2.17;;;0.90;;
5718;SDS011;2884;47.734;9.244;2023-04-24T14:52:40;1.63;;;1.20;;
5718;SDS011;2884;47.734;9.244;2023-04-24T14:55:06;2.90;;;1.20;;
5718;SDS011;2884;47.734;9.244;2023-04-24T14:57:32;1.77;;;1.10;;
5718;SDS011;2884;47.734;9.244;2023-04-24T14:59:58;1.83;;;1.13;;
5718;SDS011;2884;47.734;9.244;2023-04-24T15:02:24;1.40;;;0.90;;
5718;SDS011;2884;47.734;9.244;2023-04-24T15:04:49;2.77;;;1.10;;
5718;SDS011;2884;47.734;9.244;2023-04-24T15:07:15;2.83;;;0.90;;
5718;SDS011;2884;47.734;9.244;2023-04-24T15:09:40;1.33;;;1.00;;
5718;SDS011;2884;47.734;9.244;2023-04-24T15:12:06;2.17;;;1.00;;
5718;SDS011;2884;47.734;9.244;2023-04-24T15:14:32;0.87;;;0.87;;
5718;SDS011;2884;47.734;9.244;2023-04-24T15:16:57;2.17;;;1.10;;
5718;SDS011;2884;47.734;9.244;2023-04-24T15:19:23;1.67;;;1.00;;
5718;SDS011;2884;47.734;9.244;2023-04-24T15:21:48;3.23;;;0.80;;
5718;SDS011;2884;47.734;9.244;2023-04-24T15:24:14;1.63;;;1.20;;
5718;SDS011;2884;47.734;9.244;2023-04-24T15:26:39;0.97;;;0.97;;
5718;SDS011;2884;47.734;9.244;2023-04-24T15:29:05;1.60;;;1.10;;